createdAt,value
2019-02-11T00:02:11.826Z,46.07
2019-02-11T00:04:40.624Z,51.87
2019-02-11T00:07:09.374Z,42.13
2019-02-11T00:09:38.096Z,49.47
2019-02-11T00:12:06.992Z,49.60
2019-02-11T00:14:35.846Z,51.93
2019-02-11T00:17:04.712Z,41.53
2019-02-11T00:19:33.584Z,54.73
2019-02-11T00:22:02.213Z,46.50
2019-02-11T00:24:31.019Z,48.67
2019-02-11T00:26:59.850Z,53.97
2019-02-11T00:29:29.618Z,48.83
2019-02-11T00:31:58.408Z,43.47
2019-02-11T00:34:28.766Z,49.53
2019-02-11T00:36:57.444Z,45.30
2019-02-11T00:39:29.475Z,47.73
2019-02-11T00:41:58.182Z,43.70
2019-02-11T00:44:30.070Z,51.30
2019-02-11T00:47:01.828Z,50.03
2019-02-11T00:49:30.437Z,47.27
2019-02-11T00:51:59.232Z,48.93
2019-02-11T00:54:28.074Z,44.47
2019-02-11T00:56:56.774Z,52.27
2019-02-11T00:59:30.173Z,52.50
2019-02-11T01:02:01.658Z,45.50
2019-02-11T01:04:30.548Z,45.47
2019-02-11T01:07:07.656Z,46.70
2019-02-11T01:10:15.299Z,51.50
2019-02-11T01:12:23.342Z,47.30
2019-02-11T01:14:53.824Z,45.50
2019-02-11T01:17:24.834Z,47.83
2019-02-11T01:19:54.670Z,42.83
2019-02-11T01:22:23.542Z,45.00
2019-02-11T01:24:52.500Z,45.23
2019-02-11T01:27:21.320Z,51.93
2019-02-11T01:29:53.380Z,43.33
2019-02-11T01:32:22.446Z,50.53
2019-02-11T01:34:53.124Z,46.50
2019-02-11T01:37:22.180Z,47.20
2019-02-11T01:39:55.281Z,45.63
2019-02-11T01:42:25.768Z,47.10
2019-02-11T01:44:54.530Z,43.73
2019-02-11T01:47:23.648Z,49.83
2019-02-11T01:49:52.592Z,48.83
2019-02-11T01:52:23.934Z,53.33
2019-02-11T02:07:05.598Z,53.53
2019-02-11T02:36:19.874Z,56.20
2019-02-11T02:42:29.533Z,57.17
2019-02-11T02:44:58.479Z,59.70
2019-02-11T02:47:45.648Z,58.63
2019-02-11T02:50:14.562Z,60.67
2019-02-11T02:52:43.606Z,59.93
2019-02-11T02:56:15.152Z,61.43
2019-02-11T02:58:24.510Z,69.90
2019-02-11T03:01:09.011Z,64.90
2019-02-11T03:03:47.432Z,77.30
2019-02-11T03:06:16.312Z,68.40
2019-02-11T03:09:44.135Z,64.83
2019-02-11T03:12:12.970Z,69.33
2019-02-11T03:14:41.952Z,71.33
2019-02-11T03:17:11.724Z,82.57
2019-02-11T03:19:44.564Z,84.73
2019-02-11T03:22:31.358Z,77.07
2019-02-11T03:25:00.032Z,80.00
2019-02-11T03:27:28.759Z,78.77
2019-02-11T03:29:57.534Z,73.87
2019-02-11T03:32:26.512Z,80.00
2019-02-11T03:34:55.341Z,84.50
2019-02-11T03:37:24.307Z,81.73
2019-02-11T03:39:53.115Z,76.43
2019-02-11T03:42:22.069Z,79.67
2019-02-11T03:44:50.895Z,77.53
2019-02-11T03:47:20.905Z,77.17
2019-02-11T03:49:49.504Z,81.77
2019-02-11T03:52:18.323Z,77.17
2019-02-11T03:54:47.317Z,67.63
2019-02-11T03:57:15.967Z,77.83
2019-02-11T03:59:44.749Z,83.03
2019-02-11T04:02:14.417Z,73.17
2019-02-11T04:04:43.589Z,75.50
2019-02-11T04:07:12.460Z,80.30
2019-02-11T04:09:41.270Z,77.63
2019-02-11T04:12:10.199Z,82.47
2019-02-11T04:14:39.072Z,78.37
2019-02-11T04:17:07.852Z,80.97
2019-02-11T04:19:36.692Z,83.13
2019-02-11T04:22:11.147Z,74.53
2019-02-11T04:24:40.122Z,69.73
2019-02-11T04:27:08.848Z,75.83
2019-02-11T04:29:37.663Z,76.63
2019-02-11T04:32:06.411Z,82.33
2019-02-11T04:34:35.297Z,75.50
2019-02-11T04:37:04.073Z,82.57
2019-02-11T04:39:32.899Z,82.60
2019-02-11T04:42:01.657Z,77.07
2019-02-11T04:44:33.901Z,74.33
2019-02-11T04:47:01.013Z,81.40
2019-02-11T04:49:29.672Z,74.67
2019-02-11T04:51:58.931Z,79.37
2019-02-11T04:54:28.107Z,76.57
2019-02-11T04:56:56.828Z,80.30
2019-02-11T04:59:25.601Z,83.17
2019-02-11T05:01:54.443Z,85.70
2019-02-11T05:04:23.183Z,79.97
2019-02-11T05:06:52.046Z,78.77
2019-02-11T05:09:20.887Z,86.50
2019-02-11T05:11:49.747Z,76.93
2019-02-11T05:14:18.375Z,86.07
2019-02-11T05:16:47.061Z,77.50
2019-02-11T05:19:15.986Z,84.90
2019-02-11T05:21:44.638Z,83.23
2019-02-11T05:24:13.399Z,82.30
2019-02-11T05:26:42.186Z,81.93
2019-02-11T05:29:11.039Z,77.30
2019-02-11T05:31:39.893Z,73.73
2019-02-11T05:34:08.800Z,74.70
2019-02-11T05:36:42.057Z,68.40
2019-02-11T05:48:18.744Z,62.07
2019-02-11T06:04:01.121Z,57.83
2019-02-11T06:06:31.102Z,52.40
2019-02-11T06:08:59.959Z,57.43
2019-02-11T06:11:28.650Z,58.93
2019-02-11T06:13:57.773Z,54.57
2019-02-11T06:16:27.163Z,54.37
2019-02-11T06:18:57.897Z,59.73
2019-02-11T06:21:26.611Z,55.67
2019-02-11T06:23:55.351Z,60.30
2019-02-11T06:26:24.081Z,59.00
2019-02-11T06:28:52.821Z,57.43
2019-02-11T06:31:21.691Z,55.30
2019-02-11T06:33:50.543Z,58.33
2019-02-11T06:36:19.568Z,56.83
2019-02-11T06:38:50.798Z,62.40
2019-02-11T06:41:22.599Z,56.63
2019-02-11T06:43:51.773Z,59.53
2019-02-11T06:46:20.575Z,50.00
2019-02-11T06:48:51.236Z,53.33
2019-02-11T06:51:21.090Z,52.20
2019-02-11T06:53:51.618Z,48.00
2019-02-11T06:56:20.355Z,51.13
2019-02-11T06:58:49.161Z,52.13
2019-02-11T07:01:21.838Z,47.90
2019-02-11T07:03:55.023Z,48.13
2019-02-11T07:06:24.429Z,48.13
2019-02-11T07:08:53.319Z,50.33
2019-02-11T07:11:22.048Z,50.27
2019-02-11T07:13:57.449Z,44.77
2019-02-11T07:16:26.000Z,48.50
2019-02-11T07:18:54.788Z,41.80
2019-02-11T07:24:17.181Z,41.43
2019-02-11T07:26:48.859Z,41.77
2019-02-11T07:29:17.691Z,41.23
2019-02-11T07:31:46.584Z,40.23
2019-02-11T07:34:26.736Z,41.73
2019-02-11T07:40:11.983Z,34.77
2019-02-11T07:42:45.693Z,37.77
2019-02-11T07:45:18.762Z,35.57
2019-02-11T07:47:47.635Z,29.90
2019-02-11T07:50:16.693Z,37.73
2019-02-11T07:52:45.299Z,35.40
2019-02-11T07:55:20.412Z,36.47
2019-02-11T07:57:49.243Z,35.63
2019-02-11T08:00:21.753Z,34.13
2019-02-11T08:02:50.506Z,33.23
2019-02-11T08:05:19.384Z,31.73
2019-02-11T08:07:48.232Z,34.17
2019-02-11T08:10:16.992Z,32.73
2019-02-11T08:15:41.734Z,32.70
2019-02-11T08:18:10.564Z,27.60
2019-02-11T08:20:39.372Z,32.53
2019-02-11T08:23:13.087Z,25.87
2019-02-11T08:25:38.504Z,27.87
2019-02-11T08:28:07.239Z,26.37
2019-02-11T08:30:36.094Z,22.20
2019-02-11T08:33:05.045Z,24.67
2019-02-11T08:35:33.968Z,25.43
2019-02-11T08:38:02.782Z,22.80
2019-02-11T08:40:31.420Z,23.90
2019-02-11T08:43:00.106Z,23.97
2019-02-11T08:45:28.926Z,22.30
2019-02-11T08:47:57.827Z,23.00
2019-02-11T08:50:26.657Z,21.43
2019-02-11T08:52:55.443Z,21.43
2019-02-11T08:55:24.736Z,21.70
2019-02-11T08:57:53.653Z,18.57
2019-02-11T09:00:22.285Z,21.97
2019-02-11T09:02:51.089Z,18.70
2019-02-11T09:05:19.863Z,18.17
2019-02-11T09:07:48.871Z,18.80
2019-02-11T09:10:17.538Z,17.10
2019-02-11T09:12:46.118Z,18.67
2019-02-11T09:15:15.185Z,16.40
2019-02-11T09:17:43.965Z,18.23
2019-02-11T09:20:12.899Z,21.57
2019-02-11T09:22:42.678Z,17.77
2019-02-11T09:25:11.814Z,20.10
2019-02-11T09:27:40.660Z,17.83
2019-02-11T09:30:17.184Z,15.83
2019-02-11T09:32:45.927Z,14.10
2019-02-11T09:35:14.706Z,12.80
2019-02-11T09:37:43.687Z,12.50
2019-02-11T09:40:17.997Z,12.83
2019-02-11T09:42:46.964Z,12.23
2019-02-11T09:45:18.813Z,11.20
2019-02-11T09:47:47.563Z,13.87
2019-02-11T09:50:40.412Z,12.93
2019-02-11T09:53:15.227Z,10.77
2019-02-11T09:55:44.164Z,13.17
2019-02-11T09:58:12.892Z,12.63
2019-02-11T10:00:41.728Z,13.67
2019-02-11T10:03:19.141Z,12.43
2019-02-11T10:05:56.965Z,13.10
2019-02-11T10:08:36.099Z,14.77
2019-02-11T10:11:05.036Z,12.50
2019-02-11T10:13:33.816Z,14.30
2019-02-11T10:16:02.562Z,14.37
2019-02-11T10:18:31.526Z,13.97
2019-02-11T10:21:00.372Z,9.77
2019-02-11T10:23:29.123Z,10.07
2019-02-11T10:25:57.904Z,8.23
2019-02-11T10:28:26.899Z,10.03
2019-02-11T10:30:55.627Z,6.93
2019-02-11T10:33:24.370Z,10.47
2019-02-11T10:35:53.437Z,7.47
2019-02-11T10:38:22.196Z,7.13
2019-02-11T10:40:51.077Z,6.30
2019-02-11T10:43:19.957Z,5.80
2019-02-11T10:45:48.989Z,9.07
2019-02-11T10:48:17.643Z,5.47
2019-02-11T10:50:46.511Z,5.30
2019-02-11T10:53:15.749Z,4.67
2019-02-11T10:55:44.567Z,5.03
2019-02-11T10:58:13.359Z,4.77
2019-02-11T11:00:42.183Z,3.90
2019-02-11T11:03:11.051Z,3.80
2019-02-11T11:05:39.720Z,4.67
2019-02-11T11:08:09.103Z,3.97
2019-02-11T11:10:39.499Z,4.87
2019-02-11T11:13:08.368Z,5.07
2019-02-11T11:15:37.259Z,4.60
2019-02-11T11:18:07.396Z,3.50
2019-02-11T11:20:36.248Z,4.57
2019-02-11T11:23:05.009Z,4.13
2019-02-11T11:25:33.897Z,5.60
2019-02-11T11:28:02.713Z,2.73
2019-02-11T11:30:31.838Z,4.07
2019-02-11T11:33:00.656Z,4.97
2019-02-11T11:35:29.629Z,3.30
2019-02-11T11:37:58.422Z,3.37
2019-02-11T11:40:27.729Z,3.07
2019-02-11T11:42:56.555Z,4.03
2019-02-11T11:45:25.477Z,4.50
2019-02-11T11:47:55.610Z,4.27
2019-02-11T11:50:26.487Z,5.63
2019-02-11T11:56:07.275Z,3.67
2019-02-11T11:58:36.113Z,4.23
2019-02-11T12:01:05.192Z,4.43
2019-02-11T12:03:34.030Z,7.23
2019-02-11T12:06:11.492Z,5.53
2019-02-11T12:08:40.287Z,5.03
2019-02-11T12:11:09.219Z,6.50
2019-02-11T12:13:38.200Z,4.30
2019-02-11T12:16:07.206Z,3.73
2019-02-11T12:18:38.101Z,5.30
2019-02-11T12:21:06.901Z,5.07
2019-02-11T12:23:35.696Z,4.17
2019-02-11T12:26:04.531Z,4.10
2019-02-11T12:28:33.457Z,5.13
2019-02-11T12:31:02.300Z,4.33
2019-02-11T12:33:30.908Z,5.53
2019-02-11T12:35:59.630Z,5.80
2019-02-11T12:38:28.223Z,5.83
2019-02-11T12:40:57.060Z,5.23
2019-02-11T12:43:25.940Z,7.30
2019-02-11T12:45:57.859Z,5.70
2019-02-11T12:48:26.824Z,4.80
2019-02-11T12:50:57.644Z,3.97
2019-02-11T12:53:26.401Z,4.37
2019-02-11T12:55:55.291Z,4.60
2019-02-11T12:58:24.248Z,6.80
2019-02-11T13:00:53.080Z,8.03
2019-02-11T13:03:21.999Z,7.50
2019-02-11T13:05:52.445Z,8.50
2019-02-11T13:08:21.229Z,9.00
2019-02-11T13:10:50.066Z,11.07
2019-02-11T13:13:18.963Z,12.20
2019-02-11T13:16:00.264Z,10.53
2019-02-11T13:18:18.216Z,11.73
2019-02-11T13:20:47.125Z,10.07
2019-02-11T13:23:15.781Z,10.97
2019-02-11T13:25:44.524Z,11.57
2019-02-11T13:28:13.299Z,10.37
2019-02-11T13:30:42.179Z,11.53
2019-02-11T13:33:10.813Z,10.07
2019-02-11T13:35:39.562Z,9.77
2019-02-11T13:38:08.204Z,11.73
2019-02-11T13:40:36.994Z,14.53
2019-02-11T13:43:05.879Z,11.77
2019-02-11T13:45:34.839Z,9.90
2019-02-11T13:48:03.541Z,7.83
2019-02-11T13:50:32.204Z,5.90
2019-02-11T13:53:01.133Z,8.73
2019-02-11T13:55:31.667Z,6.37
2019-02-11T13:58:01.260Z,5.70
2019-02-11T14:00:34.644Z,8.40
2019-02-11T14:03:06.073Z,7.17
2019-02-11T14:05:34.925Z,7.40
2019-02-11T14:08:07.393Z,10.33
2019-02-11T14:10:36.045Z,12.90
2019-02-11T14:13:06.113Z,13.73
2019-02-11T14:15:34.915Z,12.10
2019-02-11T14:18:14.313Z,15.20
2019-02-11T14:20:41.740Z,14.30
2019-02-11T14:23:10.799Z,16.07
2019-02-11T14:25:45.013Z,15.03
2019-02-11T14:28:18.296Z,15.37
2019-02-11T14:30:47.125Z,14.07
2019-02-11T14:33:16.290Z,15.17
2019-02-11T14:35:45.231Z,16.17
2019-02-11T14:38:13.979Z,15.20
2019-02-11T14:40:42.944Z,9.80
2019-02-11T14:43:11.640Z,9.47
2019-02-11T14:45:58.743Z,12.23
2019-02-11T14:48:29.162Z,9.17
2019-02-11T14:50:57.911Z,10.00
2019-02-11T14:53:26.676Z,10.73
2019-02-11T14:55:55.394Z,10.40
2019-02-11T14:58:24.231Z,12.57
2019-02-11T15:00:52.998Z,15.67
2019-02-11T15:03:21.628Z,15.70
2019-02-11T15:05:50.386Z,15.37
2019-02-11T15:08:19.214Z,14.50
2019-02-11T15:10:48.383Z,18.40
2019-02-11T15:13:17.072Z,15.53
2019-02-11T15:15:45.837Z,13.17
2019-02-11T15:18:14.707Z,18.37
2019-02-11T15:20:43.564Z,19.80
2019-02-11T15:23:12.320Z,20.23
2019-02-11T15:25:41.054Z,16.93
2019-02-11T15:28:10.183Z,20.60
2019-02-11T15:30:38.801Z,19.03
2019-02-11T15:33:07.580Z,19.13
2019-02-11T15:35:36.277Z,16.83
2019-02-11T15:38:07.052Z,14.73
2019-02-11T15:40:54.847Z,18.23
2019-02-11T15:43:23.778Z,15.20
2019-02-11T15:45:53.539Z,17.83
2019-02-11T15:48:22.337Z,21.17
2019-02-11T15:50:51.112Z,15.60
2019-02-11T15:53:19.668Z,20.67
2019-02-11T15:55:49.346Z,20.50
2019-02-11T15:58:18.024Z,18.97
2019-02-11T16:00:46.724Z,16.97
2019-02-11T16:03:15.381Z,23.80
2019-02-11T16:05:49.386Z,17.13
2019-02-11T16:08:19.193Z,21.37
2019-02-11T16:10:48.086Z,21.17
2019-02-11T16:13:16.887Z,17.83
2019-02-11T16:15:45.695Z,18.27
2019-02-11T16:18:14.568Z,19.13
2019-02-11T16:20:43.389Z,19.60
2019-02-11T16:23:13.491Z,21.00
2019-02-11T16:25:46.794Z,17.80
2019-02-11T16:28:13.037Z,18.60
2019-02-11T16:30:46.424Z,16.47
2019-02-11T16:33:15.569Z,21.73
2019-02-11T16:35:44.249Z,17.20
2019-02-11T16:38:12.916Z,19.73
2019-02-11T16:40:42.777Z,19.33
2019-02-11T16:43:11.606Z,19.80
2019-02-11T16:45:40.525Z,20.07
2019-02-11T16:48:09.459Z,21.83
2019-02-11T16:50:38.395Z,18.90
2019-02-11T16:53:07.222Z,19.80
2019-02-11T16:55:36.050Z,20.10
2019-02-11T16:58:04.842Z,22.07
2019-02-11T17:00:33.629Z,19.17
2019-02-11T17:03:02.449Z,19.87
2019-02-11T17:05:32.287Z,19.03
2019-02-11T17:08:01.017Z,24.80
2019-02-11T17:10:29.841Z,19.50
2019-02-11T17:12:59.766Z,25.37
2019-02-11T17:15:30.244Z,27.33
2019-02-11T17:17:59.202Z,20.07
2019-02-11T17:20:28.071Z,25.77
2019-02-11T17:22:58.385Z,22.53
2019-02-11T17:25:27.209Z,24.03
2019-02-11T17:27:55.919Z,21.90
2019-02-11T17:30:33.143Z,20.53
2019-02-11T17:33:01.910Z,20.17
2019-02-11T17:35:30.641Z,18.57
2019-02-11T17:37:59.512Z,14.87
2019-02-11T17:40:28.550Z,16.40
2019-02-11T17:42:59.130Z,20.47
2019-02-11T17:45:33.969Z,14.90
2019-02-11T17:48:02.842Z,16.43
2019-02-11T17:50:31.707Z,16.80
2019-02-11T17:53:03.458Z,19.20
2019-02-11T17:55:35.103Z,18.90
2019-02-11T17:58:04.201Z,17.80
2019-02-11T18:00:43.572Z,16.93
2019-02-11T18:03:12.395Z,20.23
2019-02-11T18:05:42.406Z,22.67
2019-02-11T18:08:25.000Z,21.37
2019-02-11T18:10:57.743Z,23.10
2019-02-11T18:13:28.702Z,19.43
2019-02-11T18:15:58.508Z,23.93
2019-02-11T18:18:30.179Z,18.13
2019-02-11T18:21:01.702Z,19.87
2019-02-11T18:23:30.527Z,16.97
2019-02-11T18:25:59.448Z,19.63
2019-02-11T18:28:30.443Z,19.27
2019-02-11T18:30:59.198Z,22.23
2019-02-11T18:33:27.970Z,21.00
2019-02-11T18:35:59.736Z,18.20
2019-02-11T18:38:28.982Z,18.87
2019-02-11T18:41:00.251Z,16.90
2019-02-11T18:43:32.315Z,21.30
2019-02-11T18:46:07.361Z,17.83
2019-02-11T18:48:36.002Z,18.17
2019-02-11T18:51:04.967Z,18.03
2019-02-11T18:53:33.976Z,22.63
2019-02-11T18:56:08.025Z,17.83
2019-02-11T18:58:36.874Z,15.23
2019-02-11T19:01:05.678Z,13.50
2019-02-11T19:03:34.388Z,15.63
2019-02-11T19:06:03.253Z,16.47
2019-02-11T19:08:33.907Z,13.67
2019-02-11T19:11:03.272Z,16.60
2019-02-11T19:13:32.610Z,18.07
2019-02-11T19:16:03.871Z,19.40
2019-02-11T19:18:32.551Z,15.00
2019-02-11T19:21:01.355Z,17.47
2019-02-11T19:23:30.304Z,15.47
2019-02-11T19:26:01.088Z,13.67
2019-02-11T19:28:29.728Z,19.70
2019-02-11T19:30:59.824Z,16.43
2019-02-11T19:33:30.167Z,14.87
2019-02-11T19:35:58.852Z,17.07
2019-02-11T19:38:29.290Z,14.43
2019-02-11T19:40:59.992Z,15.40
2019-02-11T19:43:28.829Z,12.80
2019-02-11T19:45:57.622Z,17.70
2019-02-11T19:48:26.769Z,13.60
2019-02-11T19:50:55.605Z,13.53
2019-02-11T19:53:24.501Z,17.57
2019-02-11T19:55:53.244Z,14.80
2019-02-11T19:58:22.130Z,14.33
2019-02-11T20:00:55.530Z,13.10
2019-02-11T20:03:38.619Z,12.20
2019-02-11T20:06:07.482Z,14.17
2019-02-11T20:08:39.285Z,11.20
2019-02-11T20:11:08.068Z,14.57
2019-02-11T20:13:37.067Z,11.70
2019-02-11T20:16:06.040Z,14.77
2019-02-11T20:18:35.173Z,12.73
2019-02-11T20:21:03.953Z,12.93
2019-02-11T20:23:32.957Z,14.73
2019-02-11T20:26:02.117Z,13.50
2019-02-11T20:28:34.817Z,11.47
2019-02-11T20:31:03.705Z,15.47
2019-02-11T20:33:32.515Z,9.17
2019-02-11T20:36:01.466Z,15.13
2019-02-11T20:38:30.231Z,15.37
2019-02-11T20:41:04.051Z,13.10
2019-02-11T20:43:36.969Z,14.40
2019-02-11T20:46:03.348Z,17.43
2019-02-11T20:48:32.175Z,17.73
2019-02-11T20:51:01.131Z,15.50
2019-02-11T20:53:30.088Z,13.40
2019-02-11T20:55:58.861Z,13.00
2019-02-11T20:58:27.706Z,12.73
2019-02-11T21:00:56.486Z,13.00
2019-02-11T21:03:32.027Z,14.90
2019-02-11T21:06:00.849Z,18.40
2019-02-11T21:08:32.544Z,13.17
2019-02-11T21:11:01.775Z,21.60
2019-02-11T21:13:32.040Z,18.20
2019-02-11T21:16:01.483Z,15.20
2019-02-11T21:18:30.443Z,18.87
2019-02-11T21:20:59.866Z,15.83
2019-02-11T21:23:32.002Z,18.47
2019-02-11T21:26:00.986Z,19.27
2019-02-11T21:28:29.960Z,17.03
2019-02-11T21:30:58.850Z,19.27
2019-02-11T21:33:30.130Z,21.70
2019-02-11T21:35:58.951Z,21.07
2019-02-11T21:38:27.823Z,22.47
2019-02-11T21:40:56.703Z,20.43
2019-02-11T21:43:25.449Z,19.40
2019-02-11T21:45:54.315Z,18.00
2019-02-11T21:48:23.204Z,15.40
2019-02-11T21:50:52.124Z,18.37
2019-02-11T21:53:21.057Z,20.20
2019-02-11T21:55:49.818Z,20.00
2019-02-11T21:58:20.405Z,15.93
2019-02-11T22:00:49.427Z,14.83
2019-02-11T22:03:18.084Z,17.40
2019-02-11T22:05:46.855Z,17.37
2019-02-11T22:08:15.597Z,21.90
2019-02-11T22:10:44.354Z,17.77
2019-02-11T22:13:12.931Z,21.50
2019-02-11T22:15:41.798Z,21.33
2019-02-11T22:18:10.591Z,25.13
2019-02-11T22:20:39.282Z,24.13
2019-02-11T22:23:09.818Z,24.07
2019-02-11T22:26:13.867Z,23.63
2019-02-11T22:28:14.391Z,24.03
2019-02-11T22:30:43.350Z,21.17
2019-02-11T22:33:12.518Z,22.63
2019-02-11T22:35:41.285Z,24.73
2019-02-11T22:41:13.204Z,24.53
2019-02-11T22:43:59.691Z,22.10
2019-02-11T22:46:24.413Z,23.87
2019-02-11T22:48:53.152Z,24.53
2019-02-11T22:51:21.803Z,21.30
2019-02-11T22:53:52.164Z,24.37
2019-02-11T22:56:21.017Z,26.47
2019-02-11T22:58:49.702Z,22.53
2019-02-11T23:01:18.924Z,22.13
2019-02-11T23:03:48.959Z,23.50
2019-02-11T23:06:17.721Z,22.13
2019-02-11T23:08:46.638Z,22.57
2019-02-11T23:11:15.451Z,25.57
2019-02-11T23:13:47.055Z,25.17
2019-02-11T23:16:15.830Z,23.23
2019-02-11T23:18:44.649Z,24.33
2019-02-11T23:21:21.277Z,26.33
2019-02-11T23:23:50.248Z,25.43
2019-02-11T23:26:18.948Z,24.77
2019-02-11T23:28:47.606Z,23.07
2019-02-11T23:31:16.390Z,26.77
2019-02-11T23:33:45.222Z,22.07
2019-02-11T23:36:13.896Z,24.17
2019-02-11T23:38:42.680Z,27.10
2019-02-11T23:41:11.362Z,25.23
2019-02-11T23:43:40.146Z,23.90
2019-02-11T23:46:08.938Z,27.03
2019-02-11T23:48:37.740Z,19.20
2019-02-11T23:51:06.571Z,27.33
2019-02-11T23:53:35.335Z,26.17
2019-02-11T23:56:04.115Z,24.93
2019-02-11T23:58:32.954Z,23.63
